Time;durP1;ratioP1;P1;durP2;ratioP2;P2;SDS_P1;SDS_P2;PMS_P1;PMS_P2;Temp;Humidity;BMP_temperature;BMP_pressure;BME280_temperature;BME280_humidity;BME280_pressure;Samples;Min_cycle;Max_cycle;Signal;HPM_P1;HPM_P2
2023/10/09 00:01:13;;;;;;;;;;;;;;;21.28;54.71;101046.63;6056098;23;6790;-74
2023/10/09 00:03:43;;;;;;;;;;;;;;;21.23;54.84;101055.25;6080667;23;6980;-74
2023/10/09 00:06:13;;;;;;;;;;;;;;;21.19;54.86;101049.97;6081891;23;6847;-73
2023/10/09 00:08:39;;;;;;;;;;;;;;;20.98;55.72;101046.19;6056889;23;7118;-73
2023/10/09 00:11:17;;;;;;;;;;;;;;;21.05;54.74;101045.44;6054911;23;7205;-75
2023/10/09 00:13:52;;;;;;;;;;;;;;;21.01;54.96;101035.84;6079867;23;6806;-73
2023/10/09 00:16:33;;;;;;;;;;;;;;;21.00;54.92;101038.41;6054739;23;6779;-77
2023/10/09 00:19:16;;;;;;;;;;;;;;;20.97;55.07;101035.78;6057947;23;6872;-73
2023/10/09 00:21:47;;;;;;;;;;;;;;;20.92;54.92;101039.16;6078989;23;6962;-77
2023/10/09 00:24:13;;;;;;;;;;;;;;;20.89;55.02;101033.91;6082359;23;6958;-74
2023/10/09 00:26:45;;;;;;;;;;;;;;;20.85;55.29;101041.66;6055517;23;6771;-77
2023/10/09 00:29:21;;;;;;;;;;;;;;;20.80;55.25;101034.59;6055534;23;6771;-74
2023/10/09 00:32:04;;;;;;;;;;;;;;;20.76;55.28;101039.72;6033207;23;7224;-75
2023/10/09 00:34:31;;;;;;;;;;;;;;;20.71;55.44;101033.59;6057661;23;6887;-74
2023/10/09 00:37:04;;;;;;;;;;;;;;;20.70;55.67;101035.31;6056336;23;6775;-75
2023/10/09 00:42:03;;;;;;;;;;;;;;;20.62;55.67;101024.78;6068699;23;6897;-73
2023/10/09 00:44:38;;;;;;;;;;;;;;;20.58;55.59;101025.59;6055181;23;7126;-74
2023/10/09 00:47:22;;;;;;;;;;;;;;;20.54;55.55;101027.25;6056787;23;6783;-75
2023/10/09 00:50:01;;;;;;;;;;;;;;;20.45;55.95;101024.50;6057755;23;6871;-75
2023/10/09 00:52:43;;;;;;;;;;;;;;;20.41;56.13;101022.66;6082335;23;6958;-75
2023/10/09 00:55:20;;;;;;;;;;;;;;;20.42;56.32;101019.22;6059615;23;6783;-75
2023/10/09 00:57:50;;;;;;;;;;;;;;;20.42;55.90;101019.22;6056917;23;6775;-74
2023/10/09 01:00:32;;;;;;;;;;;;;;;20.43;56.46;101014.91;6055777;23;6787;-74
2023/10/09 01:11:18;;;;;;;;;;;;;;;20.52;57.00;101002.03;6090473;23;6763;-74
2023/10/09 01:16:18;;;;;;;;;;;;;;;20.68;57.10;100997.94;6066837;23;6771;-73
2023/10/09 01:18:46;;;;;;;;;;;;;;;20.77;56.79;100999.84;6056643;23;6973;-73
2023/10/09 01:21:14;;;;;;;;;;;;;;;20.84;56.79;100991.28;6056798;23;6945;-74
2023/10/09 01:24:03;;;;;;;;;;;;;;;20.91;56.81;100982.69;6056881;23;6988;-75
2023/10/09 01:26:39;;;;;;;;;;;;;;;20.97;56.78;100978.44;6059016;23;7221;-73
2023/10/09 01:29:14;;;;;;;;;;;;;;;21.02;56.37;100975.06;6066071;23;6826;-72
2023/10/09 01:31:54;;;;;;;;;;;;;;;21.07;56.52;100970.75;6055570;23;6987;-72
2023/10/09 01:34:38;;;;;;;;;;;;;;;21.12;56.44;100970.81;6060001;23;6775;-73
2023/10/09 01:37:11;;;;;;;;;;;;;;;21.18;56.46;100976.13;6034697;23;7186;-72
2023/10/09 01:39:42;;;;;;;;;;;;;;;21.23;56.03;100977.03;6033330;23;6782;-72
2023/10/09 01:42:10;;;;;;;;;;;;;;;21.29;55.57;100976.25;6057722;23;6978;-73
2023/10/09 01:44:42;;;;;;;;;;;;;;;21.32;55.92;100967.59;6033730;23;6959;-72
2023/10/09 01:47:14;;;;;;;;;;;;;;;21.36;55.95;100969.41;6036217;23;6767;-72
2023/10/09 01:49:43;;;;;;;;;;;;;;;21.39;55.94;100964.22;6034517;23;6933;-72
2023/10/09 01:52:17;;;;;;;;;;;;;;;21.40;55.46;100973.78;6060160;23;6795;-73
2023/10/09 01:54:49;;;;;;;;;;;;;;;21.44;55.47;100967.78;6059668;23;7052;-72
2023/10/09 01:57:24;;;;;;;;;;;;;;;21.48;55.68;100964.34;6036376;23;7383;-73
2023/10/09 01:59:53;;;;;;;;;;;;;;;21.51;55.67;100964.34;6035083;23;6779;-73
2023/10/09 02:02:26;;;;;;;;;;;;;;;21.55;55.57;100972.25;6034254;23;7028;-72
2023/10/09 02:05:24;;;;;;;;;;;;;;;21.58;55.45;100967.03;6036517;23;7013;-72
2023/10/09 02:07:51;;;;;;;;;;;;;;;21.59;55.45;100960.97;6040991;23;6775;-72
2023/10/09 02:10:31;;;;;;;;;;;;;;;21.60;55.19;100974.03;6036759;23;7141;-72
2023/10/09 02:13:16;;;;;;;;;;;;;;;21.63;55.29;100975.78;6037422;23;7159;-72
2023/10/09 02:21:12;;;;;;;;;;;;;;;21.61;55.28;100983.59;6051760;23;6837;-72
2023/10/09 02:26:09;;;;;;;;;;;;;;;21.60;55.28;100980.97;6035347;23;7081;-72
2023/10/09 02:28:36;;;;;;;;;;;;;;;21.58;55.19;100974.88;6034756;23;7015;-73
2023/10/09 02:31:11;;;;;;;;;;;;;;;21.57;55.09;100984.41;6034301;23;7062;-72
2023/10/09 02:33:39;;;;;;;;;;;;;;;21.55;55.24;100974.84;6033638;23;6868;-72
2023/10/09 02:36:07;;;;;;;;;;;;;;;21.51;55.04;100969.56;6058461;23;6779;-72
2023/10/09 02:38:37;;;;;;;;;;;;;;;21.49;55.03;100968.69;6036007;23;6779;-72
2023/10/09 02:43:34;;;;;;;;;;;;;;;21.48;55.39;100982.59;6034212;23;6834;-73
2023/10/09 02:46:13;;;;;;;;;;;;;;;21.48;55.29;100987.78;6034322;23;6846;-72
2023/10/09 02:48:45;;;;;;;;;;;;;;;21.45;55.29;100974.75;6033805;23;7171;-72
2023/10/09 02:54:18;;;;;;;;;;;;;;;21.45;55.05;100966.03;6048931;23;6936;-72
2023/10/09 02:56:55;;;;;;;;;;;;;;;21.41;54.99;100957.28;6038824;23;7148;-72
2023/10/09 02:59:24;;;;;;;;;;;;;;;21.42;55.06;100966.84;6037621;23;6991;-73
2023/10/09 03:01:53;;;;;;;;;;;;;;;21.40;55.24;100968.56;6035035;23;6843;-72
2023/10/09 03:04:19;;;;;;;;;;;;;;;21.40;55.00;100967.72;6035964;23;6775;-73
2023/10/09 03:06:51;;;;;;;;;;;;;;;21.39;54.94;100966.81;6058907;23;6936;-72
2023/10/09 03:09:18;;;;;;;;;;;;;;;21.38;55.03;100972.91;6034853;23;6791;-72
2023/10/09 03:11:53;;;;;;;;;;;;;;;21.36;55.02;100982.44;6035140;23;6830;-73
2023/10/09 03:14:20;;;;;;;;;;;;;;;21.34;55.20;100977.19;6032091;23;7219;-72
2023/10/09 03:16:50;;;;;;;;;;;;;;;21.34;54.88;100969.38;6034621;23;6987;-72
2023/10/09 03:19:16;;;;;;;;;;;;;;;21.32;54.91;100967.59;6057692;23;6877;-73
2023/10/09 03:21:42;;;;;;;;;;;;;;;21.31;55.30;100971.06;6033787;23;6879;-72
2023/10/09 03:24:09;;;;;;;;;;;;;;;21.30;55.30;100965.00;6029087;23;7007;-73
2023/10/09 03:26:34;;;;;;;;;;;;;;;21.30;54.98;100957.19;6030390;23;6956;-72
2023/10/09 03:29:06;;;;;;;;;;;;;;;21.29;55.07;100968.44;6033139;23;7049;-72
2023/10/09 03:31:36;;;;;;;;;;;;;;;21.28;55.00;100963.22;6032997;23;7235;-73
2023/10/09 03:34:03;;;;;;;;;;;;;;;21.26;55.14;100952.75;6035123;23;6942;-73
2023/10/09 03:36:30;;;;;;;;;;;;;;;21.25;54.97;100965.78;6035021;23;6771;-72
2023/10/09 03:38:58;;;;;;;;;;;;;;;21.24;55.13;100970.13;6034271;23;7790;-72
2023/10/09 03:41:26;;;;;;;;;;;;;;;21.23;54.80;100960.56;6059000;23;6835;-73
2023/10/09 03:43:54;;;;;;;;;;;;;;;21.21;55.18;100950.09;6035897;23;6779;-72
2023/10/09 03:46:22;;;;;;;;;;;;;;;21.20;54.83;100953.56;6034540;23;6842;-72
2023/10/09 03:48:48;;;;;;;;;;;;;;;21.20;55.25;100960.53;6031245;23;6779;-73
2023/10/09 03:51:21;;;;;;;;;;;;;;;21.20;55.00;100953.56;6032796;23;8033;-73
2023/10/09 03:53:52;;;;;;;;;;;;;;;21.18;54.81;100949.19;6033926;23;7237;-73
2023/10/09 03:56:20;;;;;;;;;;;;;;;21.18;54.78;100950.06;6030954;23;6860;-72
2023/10/09 03:58:49;;;;;;;;;;;;;;;21.17;54.84;100937.88;6034713;23;6797;-72
2023/10/09 04:01:29;;;;;;;;;;;;;;;21.16;54.68;100938.75;6033211;23;6965;-72
2023/10/09 04:04:00;;;;;;;;;;;;;;;21.16;54.74;100945.69;6059794;23;6763;-72
2023/10/09 04:06:33;;;;;;;;;;;;;;;21.15;54.79;100952.66;6032856;23;6966;-72
2023/10/09 04:11:57;;;;;;;;;;;;;;;21.14;54.68;100947.41;6066827;23;7009;-73
2023/10/09 04:14:32;;;;;;;;;;;;;;;21.14;54.80;100957.81;6037009;23;7030;-72
2023/10/09 04:17:32;;;;;;;;;;;;;;;21.15;54.66;100959.56;6058672;23;8178;-72
2023/10/09 04:22:39;;;;;;;;;;;;;;;21.12;54.72;100963.00;6038832;23;7072;-73
2023/10/09 04:25:15;;;;;;;;;;;;;;;21.12;54.65;100955.19;6060775;23;7175;-72
2023/10/09 04:27:44;;;;;;;;;;;;;;;21.12;54.78;100956.94;6035151;23;7150;-73
2023/10/09 04:30:15;;;;;;;;;;;;;;;21.13;54.81;100961.28;6059770;23;7006;-72
2023/10/09 04:32:45;;;;;;;;;;;;;;;21.12;54.91;100951.72;6035158;23;6966;-72
2023/10/09 04:35:26;;;;;;;;;;;;;;;21.11;54.72;100953.44;6036241;23;7084;-72
2023/10/09 04:38:05;;;;;;;;;;;;;;;21.11;54.84;100953.44;6038177;23;6771;-72
2023/10/09 04:40:51;;;;;;;;;;;;;;;21.12;54.90;100949.97;6037184;23;6961;-73
2023/10/09 04:43:20;;;;;;;;;;;;;;;21.11;54.97;100948.22;6039724;23;7033;-72
2023/10/09 04:46:07;;;;;;;;;;;;;;;21.13;54.72;100951.72;6059974;23;7097;-72
2023/10/09 04:48:37;;;;;;;;;;;;;;;21.13;54.69;100943.03;6038043;23;7115;-72
2023/10/09 04:51:22;;;;;;;;;;;;;;;21.15;54.82;100936.13;6035539;23;7213;-72
2023/10/09 04:54:12;;;;;;;;;;;;;;;21.14;54.90;100942.19;6038611;23;6855;-73
2023/10/09 04:56:53;;;;;;;;;;;;;;;21.15;54.82;100950.03;6060170;23;6943;-72
2023/10/09 04:59:24;;;;;;;;;;;;;;;21.15;54.67;100939.63;6017868;23;7406;-75
2023/10/09 05:02:04;;;;;;;;;;;;;;;21.17;54.35;100934.41;6056195;23;6983;-78
2023/10/09 05:04:40;;;;;;;;;;;;;;;21.17;54.61;100929.19;6055498;23;6775;-77
2023/10/09 05:07:49;;;;;;;;;;;;;;;21.15;54.59;100923.97;6108752;23;6828;-73
2023/10/09 05:10:18;;;;;;;;;;;;;;;21.13;54.64;100912.63;6113389;23;6783;-73
2023/10/09 05:12:56;;;;;;;;;;;;;;;21.13;54.43;100920.44;6091438;23;6783;-73
2023/10/09 05:15:28;;;;;;;;;;;;;;;21.11;54.40;100916.97;6091538;23;6960;-73
2023/10/09 05:17:56;;;;;;;;;;;;;;;21.11;54.35;100914.34;6089306;23;7195;-73
2023/10/09 05:23:18;;;;;;;;;;;;;;;21.10;54.07;100904.78;6098253;23;7090;-73
2023/10/09 05:25:53;;;;;;;;;;;;;;;21.11;54.53;100910.88;6093088;23;6786;-74
2023/10/09 05:28:30;;;;;;;;;;;;;;;21.11;54.51;100916.97;6091557;23;6801;-73
2023/10/09 05:31:07;;;;;;;;;;;;;;;21.10;54.41;100915.22;6089441;23;6958;-73
2023/10/09 05:33:37;;;;;;;;;;;;;;;21.09;54.26;100921.28;6089561;23;7163;-73
2023/10/09 05:36:31;;;;;;;;;;;;;;;21.09;54.67;100934.31;6065325;23;7231;-73
2023/10/09 05:39:18;;;;;;;;;;;;;;;21.06;54.26;100942.09;6113104;23;6771;-74
2023/10/09 05:41:59;;;;;;;;;;;;;;;21.05;54.46;100942.91;6067135;23;6959;-73
2023/10/09 05:51:10;;;;;;;;;;;;;;;21.01;54.41;100938.53;6110471;23;6902;-77
2023/10/09 06:09:09;;;;;;;;;;;;;;;20.91;54.56;100950.59;6086409;23;6838;-74
2023/10/09 06:14:12;;;;;;;;;;;;;;;20.93;54.76;100960.16;6038706;23;6826;-73
2023/10/09 06:16:43;;;;;;;;;;;;;;;20.97;54.63;100950.66;6050531;23;7129;-71
2023/10/09 06:19:12;;;;;;;;;;;;;;;21.00;54.66;100965.44;6054401;23;6953;-72
2023/10/09 06:24:09;;;;;;;;;;;;;;;21.08;54.53;100953.41;6030912;23;6763;-71
2023/10/09 06:26:36;;;;;;;;;;;;;;;21.14;54.78;100931.75;6054615;23;6795;-71
2023/10/09 06:29:30;;;;;;;;;;;;;;;21.18;54.39;100929.22;6030350;23;6873;-71
2023/10/09 06:31:59;;;;;;;;;;;;;;;21.20;54.20;100935.31;6048428;23;6858;-72
2023/10/09 06:34:35;;;;;;;;;;;;;;;21.25;54.47;100958.84;6056246;23;7023;-73
2023/10/09 06:37:17;;;;;;;;;;;;;;;21.28;54.23;100986.69;6054786;23;6934;-72
2023/10/09 06:45:16;;;;;;;;;;;;;;;21.37;54.26;100989.41;6062942;23;6894;-71
2023/10/09 06:47:55;;;;;;;;;;;;;;;21.41;54.42;100998.16;6031150;23;7814;-71
2023/10/09 06:50:24;;;;;;;;;;;;;;;21.42;54.30;100999.88;6053952;23;6850;-73
2023/10/09 06:52:58;;;;;;;;;;;;;;;21.48;54.12;101006.06;6031299;23;7416;-71
2023/10/09 06:55:36;;;;;;;;;;;;;;;21.53;54.12;101015.66;6033503;23;6775;-73
2023/10/09 06:58:09;;;;;;;;;;;;;;;21.56;53.60;101024.41;6031780;23;7429;-71
2023/10/09 07:03:32;;;;;;;;;;;;;;;21.60;54.05;101015.78;6051394;23;6768;-72
2023/10/09 07:17:01;;;;;;;;;;;;;;;21.63;53.88;101034.06;6048444;23;6771;-71
2023/10/09 07:22:04;;;;;;;;;;;;;;;21.66;53.76;101028.00;6068673;23;6831;-76
2023/10/09 07:24:49;;;;;;;;;;;;;;;21.65;53.97;101018.44;6034987;23;7244;-77
2023/10/09 07:27:43;;;;;;;;;;;;;;;21.66;53.66;101033.22;6083041;23;6779;-74
2023/10/09 07:32:54;;;;;;;;;;;;;;;21.66;54.06;101014.97;6061660;23;11393;-76
2023/10/09 07:38:11;;;;;;;;;;;;;;;21.70;54.16;101016.78;6084064;23;6767;-74
2023/10/09 07:40:59;;;;;;;;;;;;;;;21.72;53.96;101009.84;6059190;23;6973;-74
2023/10/09 07:43:45;;;;;;;;;;;;;;;21.73;54.03;101009.00;6084821;23;6939;-73
2023/10/09 07:46:32;;;;;;;;;;;;;;;21.74;54.09;101000.31;6037287;23;7042;-73
2023/10/09 07:49:08;;;;;;;;;;;;;;;21.77;54.06;101002.06;6060192;23;6944;-75
2023/10/09 07:51:43;;;;;;;;;;;;;;;21.80;54.11;101011.66;6082900;23;7256;-77
2023/10/09 07:54:14;;;;;;;;;;;;;;;21.84;53.75;101024.75;6059837;23;7227;-76
2023/10/09 07:56:46;;;;;;;;;;;;;;;21.87;53.83;101037.81;6060032;23;6779;-77
2023/10/09 07:59:19;;;;;;;;;;;;;;;21.88;53.87;101037.00;6059245;23;7011;-73
2023/10/09 08:01:52;;;;;;;;;;;;;;;21.90;53.81;101022.22;6059658;23;6775;-73
2023/10/09 08:04:37;;;;;;;;;;;;;;;21.92;53.69;101022.22;6059348;23;7010;-77
2023/10/09 08:07:19;;;;;;;;;;;;;;;21.95;53.72;101016.16;6051675;23;6771;-75
2023/10/09 08:11:34;;;;;;;;;;;;;;;21.99;53.87;101003.16;6051486;23;6958;-76
2023/10/09 08:12:57;;;;;;;;;;;;;;;22.05;53.61;101004.97;6071690;23;6775;-74
2023/10/09 08:15:51;;;;;;;;;;;;;;;22.16;53.83;101010.31;6033946;23;7220;-74
2023/10/09 08:18:18;;;;;;;;;;;;;;;22.31;54.01;101005.22;6051751;23;6772;-76
2023/10/09 08:23:47;;;;;;;;;;;;;;;22.56;53.68;101004.59;6083073;23;6798;-77
2023/10/09 08:26:14;;;;;;;;;;;;;;;22.61;53.00;101001.16;6072874;23;7105;-78
2023/10/09 08:28:45;;;;;;;;;;;;;;;22.62;53.02;100983.72;6051110;23;6779;-74
2023/10/09 08:31:34;;;;;;;;;;;;;;;22.60;52.34;100986.34;6056971;23;7373;-76
2023/10/09 08:34:01;;;;;;;;;;;;;;;22.58;52.73;100995.03;6053314;23;6965;-75
2023/10/09 08:36:28;;;;;;;;;;;;;;;22.57;53.18;101001.13;6031284;23;7135;-75
2023/10/09 08:38:58;;;;;;;;;;;;;;;22.58;52.65;100993.28;6055141;23;6771;-76
2023/10/09 08:41:30;;;;;;;;;;;;;;;22.62;52.30;100996.78;6033470;23;6934;-75
2023/10/09 08:43:57;;;;;;;;;;;;;;;22.67;52.50;100995.09;6029604;23;7042;-75
2023/10/09 08:46:27;;;;;;;;;;;;;;;22.78;53.03;101000.38;6030865;23;7042;-76
2023/10/09 08:49:05;;;;;;;;;;;;;;;22.90;53.05;101002.22;6053603;23;7041;-76
2023/10/09 08:51:34;;;;;;;;;;;;;;;23.03;52.86;101017.13;6053253;23;6993;-76
2023/10/09 08:53:59;;;;;;;;;;;;;;;23.18;52.89;101023.28;6053833;23;6966;-76
2023/10/09 08:56:25;;;;;;;;;;;;;;;23.35;52.72;101015.56;6050598;23;7175;-75
2023/10/09 08:59:01;;;;;;;;;;;;;;;23.46;51.79;101023.47;6052129;23;6968;-75
2023/10/09 09:01:31;;;;;;;;;;;;;;;23.60;52.40;101001.72;6053118;23;6767;-76
2023/10/09 09:03:59;;;;;;;;;;;;;;;23.71;52.09;100995.66;6052806;23;7102;-74
2023/10/09 09:06:25;;;;;;;;;;;;;;;23.84;51.44;100982.59;6030208;23;6959;-76
2023/10/09 09:08:59;;;;;;;;;;;;;;;23.92;51.07;100978.25;6053877;23;8498;-75
2023/10/09 09:11:30;;;;;;;;;;;;;;;23.99;50.92;100977.38;6029813;23;7249;-76
2023/10/09 09:14:02;;;;;;;;;;;;;;;24.08;50.71;100979.16;6007356;23;7273;-76
2023/10/09 09:16:34;;;;;;;;;;;;;;;24.19;50.78;100997.50;6031433;23;7151;-76
2023/10/09 09:21:40;;;;;;;;;;;;;;;24.52;50.26;101003.63;6053892;23;6767;-75
2023/10/09 09:26:58;;;;;;;;;;;;;;;24.74;50.11;100994.88;6039138;23;6779;-76
2023/10/09 09:29:39;;;;;;;;;;;;;;;24.84;50.05;100999.25;6052627;23;6783;-76
2023/10/09 09:32:16;;;;;;;;;;;;;;;24.92;49.29;100994.88;6030800;23;7085;-78
2023/10/09 09:35:05;;;;;;;;;;;;;;;25.01;49.31;100993.13;6028620;23;6842;-78
2023/10/09 09:40:15;;;;;;;;;;;;;;;25.30;48.81;100979.03;6052195;23;6763;-72
2023/10/09 09:42:48;;;;;;;;;;;;;;;25.44;48.49;100977.19;6053244;23;6950;-72
2023/10/09 09:45:16;;;;;;;;;;;;;;;25.57;48.11;100972.81;6029864;23;6978;-72
2023/10/09 09:47:51;;;;;;;;;;;;;;;25.68;47.93;100966.63;6053547;23;6763;-72
2023/10/09 09:50:29;;;;;;;;;;;;;;;25.79;47.96;100970.06;6051148;23;6931;-71
2023/10/09 09:52:56;;;;;;;;;;;;;;;25.95;47.39;100972.56;6006244;23;7267;-73
2023/10/09 09:55:31;;;;;;;;;;;;;;;26.10;47.28;100961.97;6053601;23;6775;-73
2023/10/09 09:58:06;;;;;;;;;;;;;;;26.26;46.74;100953.97;6029837;23;6814;-72
2023/10/09 10:03:16;;;;;;;;;;;;;;;26.51;45.75;100954.66;6063323;23;6916;-72
2023/10/09 10:05:46;;;;;;;;;;;;;;;26.66;45.41;100944.84;6036535;23;7007;-72
2023/10/09 10:08:20;;;;;;;;;;;;;;;26.84;45.29;100944.66;6036666;23;6786;-71
2023/10/09 10:10:49;;;;;;;;;;;;;;;27.03;44.82;100950.59;6037857;23;6939;-72
2023/10/09 10:13:21;;;;;;;;;;;;;;;27.28;44.66;100941.53;6013983;23;7366;-72
2023/10/09 10:16:02;;;;;;;;;;;;;;;27.48;43.72;100935.16;6038173;23;6850;-72
2023/10/09 10:18:32;;;;;;;;;;;;;;;27.58;43.48;100937.63;6062629;23;6787;-72
2023/10/09 10:21:33;;;;;;;;;;;;;;;27.62;43.21;100932.31;6036307;23;6775;-73
2023/10/09 10:24:05;;;;;;;;;;;;;;;27.59;42.94;100928.00;6063030;23;6779;-72
2023/10/09 10:26:35;;;;;;;;;;;;;;;27.59;42.97;100926.22;6037715;23;6952;-72
2023/10/09 10:29:34;;;;;;;;;;;;;;;27.63;42.77;100923.56;6037526;23;7184;-72
2023/10/09 10:32:06;;;;;;;;;;;;;;;27.63;42.46;100927.03;6040586;23;7311;-73
2023/10/09 10:34:55;;;;;;;;;;;;;;;27.66;41.98;100919.09;6061300;23;6791;-74
2023/10/09 10:37:50;;;;;;;;;;;;;;;27.70;42.29;100922.53;6062474;23;6783;-72
2023/10/09 10:40:40;;;;;;;;;;;;;;;27.69;41.64;100929.59;6060922;23;6981;-72
2023/10/09 10:43:47;;;;;;;;;;;;;;;27.66;41.61;100926.13;6040412;23;6955;-71
2023/10/09 10:49:10;;;;;;;;;;;;;;;27.54;41.67;100935.97;6049764;23;6764;-72
2023/10/09 10:51:39;;;;;;;;;;;;;;;27.50;41.72;100934.22;6038160;23;6779;-78
2023/10/09 10:56:52;;;;;;;;;;;;;;;27.42;41.91;100939.59;6039902;23;6775;-77
2023/10/09 10:59:25;;;;;;;;;;;;;;;27.45;41.35;100952.69;6012444;23;8408;-77
2023/10/09 11:01:53;;;;;;;;;;;;;;;27.51;41.57;100966.69;6037492;23;7128;-77
2023/10/09 11:07:06;;;;;;;;;;;;;;;27.61;41.26;100967.44;6037770;23;6965;-77
2023/10/09 11:15:37;;;;;;;;;;;;;;;27.60;41.07;100974.47;6060791;23;6736;-76
2023/10/09 11:18:08;;;;;;;;;;;;;;;27.58;40.85;100974.50;6037510;23;6779;-75
2023/10/09 11:20:38;;;;;;;;;;;;;;;27.65;41.02;100982.31;6010877;23;7563;-75
2023/10/09 11:31:11;;;;;;;;;;;;;;;28.02;40.98;100979.13;6058970;23;6775;-76
2023/10/09 11:33:43;;;;;;;;;;;;;;;28.11;40.74;100978.09;6059049;23;7007;-76
2023/10/09 11:36:09;;;;;;;;;;;;;;;28.19;40.70;100976.25;6059005;23;6786;-76
2023/10/09 11:38:36;;;;;;;;;;;;;;;28.25;40.24;100980.56;6030965;23;6779;-76
2023/10/09 11:41:19;;;;;;;;;;;;;;;28.28;39.88;100972.56;6037006;23;7078;-76
2023/10/09 11:43:53;;;;;;;;;;;;;;;28.28;39.99;100980.47;6061537;23;6964;-76
2023/10/09 11:46:37;;;;;;;;;;;;;;;28.25;39.94;100965.63;6060631;23;6767;-76
2023/10/09 11:54:31;;;;;;;;;;;;;;;28.35;39.35;100966.31;6038639;23;6808;-77
2023/10/09 11:57:00;;;;;;;;;;;;;;;28.34;39.50;100966.34;6034289;23;6955;-76
2023/10/09 11:59:37;;;;;;;;;;;;;;;28.31;38.96;100961.13;6035529;23;7124;-77
2023/10/09 12:02:12;;;;;;;;;;;;;;;28.24;39.42;100957.72;6040340;23;7210;-73
2023/10/09 12:04:42;;;;;;;;;;;;;;;28.18;39.31;100960.44;6036723;23;6775;-72
2023/10/09 12:07:10;;;;;;;;;;;;;;;28.16;39.52;100959.59;6007136;23;7074;-73
2023/10/09 12:09:39;;;;;;;;;;;;;;;28.12;39.18;100964.91;6055746;23;6831;-72
2023/10/09 12:12:10;;;;;;;;;;;;;;;28.11;39.26;100957.91;6054666;23;6775;-73
2023/10/09 12:14:39;;;;;;;;;;;;;;;28.07;38.74;100956.22;6053392;23;7144;-72
2023/10/09 12:17:07;;;;;;;;;;;;;;;28.04;38.97;100968.56;6053441;23;6943;-74
2023/10/09 12:19:34;;;;;;;;;;;;;;;28.03;39.00;100954.53;6029250;23;6903;-73
2023/10/09 12:22:03;;;;;;;;;;;;;;;28.04;39.72;100955.38;6032983;23;6770;-72
2023/10/09 12:24:33;;;;;;;;;;;;;;;28.06;39.32;100953.63;6029475;23;6943;-72
2023/10/09 12:27:00;;;;;;;;;;;;;;;28.08;39.33;100951.81;6030045;23;6770;-72
2023/10/09 12:29:30;;;;;;;;;;;;;;;28.06;39.63;100948.34;6030005;23;7963;-75
2023/10/09 12:31:59;;;;;;;;;;;;;;;28.02;39.11;100952.78;6052846;23;6859;-73
2023/10/09 12:34:28;;;;;;;;;;;;;;;27.95;39.05;100951.16;6030517;23;6779;-72
2023/10/09 12:36:55;;;;;;;;;;;;;;;27.90;39.50;100950.34;6031883;23;6914;-73
2023/10/09 12:39:21;;;;;;;;;;;;;;;27.89;39.83;100951.22;6030946;23;6837;-75
2023/10/09 12:41:54;;;;;;;;;;;;;;;27.85;39.28;100942.50;6030553;23;6961;-73
2023/10/09 12:44:19;;;;;;;;;;;;;;;27.78;39.71;100939.09;6031076;23;6981;-73
2023/10/09 12:46:52;;;;;;;;;;;;;;;27.70;39.61;100941.88;6052957;23;7186;-74
2023/10/09 12:49:27;;;;;;;;;;;;;;;27.59;38.78;100944.63;6007105;23;7189;-73
2023/10/09 12:51:54;;;;;;;;;;;;;;;27.49;39.30;100943.00;6053295;23;7205;-74
2023/10/09 12:54:20;;;;;;;;;;;;;;;27.42;39.33;100941.34;6053399;23;6970;-75
2023/10/09 12:56:48;;;;;;;;;;;;;;;27.38;39.64;100947.53;6054502;23;6779;-73
2023/10/09 12:59:15;;;;;;;;;;;;;;;27.33;39.98;100944.09;6052709;23;6985;-74
2023/10/09 13:01:44;;;;;;;;;;;;;;;27.28;39.48;100952.94;6029006;23;6770;-72
2023/10/09 13:04:17;;;;;;;;;;;;;;;27.24;39.66;100947.72;6051440;23;6919;-74
2023/10/09 13:06:45;;;;;;;;;;;;;;;27.17;39.76;100955.69;6052262;23;6839;-72
2023/10/09 13:09:24;;;;;;;;;;;;;;;27.12;39.66;100956.63;6025096;23;6923;-73
2023/10/09 13:11:50;;;;;;;;;;;;;;;27.08;39.75;100962.84;6051173;23;6838;-76
2023/10/09 13:14:16;;;;;;;;;;;;;;;27.04;40.07;100967.25;6053003;23;7250;-77
2023/10/09 13:16:47;;;;;;;;;;;;;;;26.99;39.91;100969.94;6028748;23;6786;-76
2023/10/09 13:19:12;;;;;;;;;;;;;;;26.96;40.32;100977.00;6051474;23;7636;-76
2023/10/09 13:21:42;;;;;;;;;;;;;;;26.91;40.40;100971.78;6052127;23;6919;-75
2023/10/09 13:24:15;;;;;;;;;;;;;;;26.85;40.20;100966.59;6027170;23;7205;-75
2023/10/09 13:26:46;;;;;;;;;;;;;;;26.78;40.45;100978.91;6051700;23;6783;-76
2023/10/09 13:29:14;;;;;;;;;;;;;;;26.73;40.54;100978.94;6030545;23;7025;-76
2023/10/09 13:31:46;;;;;;;;;;;;;;;26.71;40.60;100969.34;6052893;23;6783;-76
2023/10/09 13:34:15;;;;;;;;;;;;;;;26.67;40.50;100951.84;6052673;23;6779;-77
2023/10/09 13:36:49;;;;;;;;;;;;;;;26.62;40.48;100944.91;6053520;23;7013;-75
2023/10/09 13:39:24;;;;;;;;;;;;;;;26.60;40.73;100951.06;6029051;23;8203;-77
2023/10/09 13:41:58;;;;;;;;;;;;;;;26.55;40.60;100958.09;6052990;23;7077;-76
2023/10/09 13:44:31;;;;;;;;;;;;;;;26.47;40.75;100953.81;6030555;23;6767;-76
2023/10/09 13:46:59;;;;;;;;;;;;;;;26.41;40.95;100959.09;6052273;23;7311;-76
2023/10/09 13:49:31;;;;;;;;;;;;;;;26.40;41.29;100961.75;6053325;23;6938;-75
2023/10/09 13:52:02;;;;;;;;;;;;;;;26.38;41.02;100955.63;6052150;23;7396;-75
2023/10/09 13:54:39;;;;;;;;;;;;;;;26.39;41.21;100954.75;6054389;23;6946;-75
2023/10/09 13:57:07;;;;;;;;;;;;;;;26.41;41.43;100961.75;6029965;23;7051;-77
2023/10/09 13:59:36;;;;;;;;;;;;;;;26.43;41.48;100964.38;6029622;23;6779;-75
2023/10/09 14:02:09;;;;;;;;;;;;;;;26.44;41.27;100959.06;6006860;23;6767;-76
2023/10/09 14:04:36;;;;;;;;;;;;;;;26.45;41.54;100960.81;5998258;23;6771;-76
2023/10/09 14:07:05;;;;;;;;;;;;;;;26.47;41.51;100961.69;6025623;23;7036;-75
2023/10/09 14:09:31;;;;;;;;;;;;;;;26.47;41.45;100956.44;6055368;23;6974;-76
2023/10/09 14:12:08;;;;;;;;;;;;;;;26.50;41.38;100962.53;6055829;23;6759;-77
2023/10/09 14:14:47;;;;;;;;;;;;;;;26.51;41.80;100957.28;6034797;23;7334;-75
2023/10/09 14:17:25;;;;;;;;;;;;;;;26.49;41.39;100961.66;6025792;23;6787;-76
2023/10/09 14:19:53;;;;;;;;;;;;;;;26.45;41.82;100960.81;6035797;23;6964;-76
2023/10/09 14:22:26;;;;;;;;;;;;;;;26.42;41.57;100963.47;6031125;23;7157;-75
2023/10/09 14:24:57;;;;;;;;;;;;;;;26.41;41.40;100960.84;6034847;23;6783;-75
2023/10/09 14:27:26;;;;;;;;;;;;;;;26.38;41.43;100968.78;6030951;23;6944;-76
2023/10/09 14:29:59;;;;;;;;;;;;;;;26.32;41.58;100965.34;6034936;23;6847;-75
2023/10/09 14:32:28;;;;;;;;;;;;;;;26.29;41.76;100967.13;6035085;23;6775;-76
2023/10/09 14:35:00;;;;;;;;;;;;;;;26.27;41.83;100969.75;6032939;23;6884;-76
2023/10/09 14:37:27;;;;;;;;;;;;;;;26.28;42.02;100971.47;6035436;23;6919;-76
2023/10/09 14:39:53;;;;;;;;;;;;;;;26.28;41.65;100965.38;6032237;23;6932;-77
2023/10/09 14:42:21;;;;;;;;;;;;;;;26.26;42.41;100964.50;6031771;23;7156;-77
2023/10/09 14:44:47;;;;;;;;;;;;;;;26.25;42.55;100987.28;6032723;23;6783;-76
2023/10/09 14:47:14;;;;;;;;;;;;;;;26.23;42.31;100977.66;6057190;23;6929;-76
2023/10/09 14:49:43;;;;;;;;;;;;;;;26.22;42.18;100965.41;6032893;23;6779;-76
2023/10/09 14:52:10;;;;;;;;;;;;;;;26.22;42.56;100965.41;6031152;23;6960;-76
2023/10/09 14:54:39;;;;;;;;;;;;;;;26.20;42.90;100968.94;6060312;23;6851;-76
2023/10/09 14:57:05;;;;;;;;;;;;;;;26.24;42.69;100968.88;6057453;23;7166;-76
2023/10/09 14:59:34;;;;;;;;;;;;;;;26.26;42.72;100956.59;6057611;23;7048;-76
2023/10/09 15:02:01;;;;;;;;;;;;;;;26.27;42.74;100950.47;6056011;23;6965;-76
2023/10/09 15:04:26;;;;;;;;;;;;;;;26.25;42.59;100947.88;6034365;23;6954;-75
2023/10/09 15:06:53;;;;;;;;;;;;;;;26.25;42.82;100947.00;6059441;23;7211;-76
2023/10/09 15:09:22;;;;;;;;;;;;;;;26.22;42.97;100953.16;6033338;23;7380;-76
2023/10/09 15:11:49;;;;;;;;;;;;;;;26.26;42.68;100951.34;6035429;23;6994;-76
2023/10/09 15:14:16;;;;;;;;;;;;;;;26.33;42.60;100953.94;6033377;23;6803;-75
2023/10/09 15:16:45;;;;;;;;;;;;;;;26.35;42.81;100956.53;6032846;23;7161;-76
2023/10/09 15:19:12;;;;;;;;;;;;;;;26.32;42.80;100952.19;6056894;23;6783;-76
2023/10/09 15:21:45;;;;;;;;;;;;;;;26.26;42.50;100956.59;6057409;23;7248;-76
2023/10/09 15:24:15;;;;;;;;;;;;;;;26.12;42.93;100956.69;6055457;23;6779;-76
2023/10/09 15:26:56;;;;;;;;;;;;;;;25.96;42.82;100961.19;6061396;23;6988;-75
2023/10/09 15:29:30;;;;;;;;;;;;;;;25.81;43.21;100956.91;6097637;23;7483;-77